Time;durP1;ratioP1;P1;durP2;ratioP2;P2;SDS_P1;SDS_P2;PMS_P1;PMS_P2;Temp;Humidity;BMP_temperature;BMP_pressure;BME280_temperature;BME280_humidity;BME280_pressure;Samples;Min_cycle;Max_cycle;Signal;HPM_P1;HPM_P2
2022/09/03 00:00:19;;;;;;;3.95;2.22;;;14.10;83.40;;;;;;5097757;28;20650;-87
2022/09/03 00:02:49;;;;;;;4.00;2.30;;;14.10;83.80;;;;;;5092807;28;20586;-88
2022/09/03 00:05:22;;;;;;;3.65;2.50;;;14.10;84.30;;;;;;5093801;28;20204;-88
2022/09/03 00:08:01;;;;;;;2.53;2.30;;;14.10;85.30;;;;;;5096789;28;20644;-88
2022/09/03 00:10:34;;;;;;;5.65;2.53;;;14.10;87.10;;;;;;5094300;28;20380;-89
2022/09/03 00:13:05;;;;;;;4.88;2.20;;;14.00;87.00;;;;;;5096721;28;20669;-88
2022/09/03 00:15:36;;;;;;;2.88;2.33;;;13.90;88.20;;;;;;5096207;28;20197;-88
2022/09/03 00:18:07;;;;;;;5.65;2.85;;;13.90;87.00;;;;;;5096919;28;20205;-88
2022/09/03 00:20:39;;;;;;;3.88;2.50;;;14.00;85.50;;;;;;5095432;28;20207;-88
2022/09/03 00:23:18;;;;;;;4.75;2.63;;;14.00;85.00;;;;;;5095138;28;20268;-88
2022/09/03 00:25:49;;;;;;;3.20;2.30;;;14.00;85.80;;;;;;5096374;28;20200;-87
2022/09/03 00:28:23;;;;;;;3.97;2.30;;;14.00;86.30;;;;;;5100594;28;20201;-87
2022/09/03 00:30:56;;;;;;;3.17;2.50;;;13.90;85.80;;;;;;5103717;28;20293;-88
2022/09/03 00:33:26;;;;;;;6.93;2.63;;;14.00;84.60;;;;;;5105142;28;20203;-88
2022/09/03 00:36:02;;;;;;;3.58;2.70;;;14.00;84.50;;;;;;5096236;28;20197;-87
2022/09/03 00:38:29;;;;;;;4.22;2.65;;;13.90;84.60;;;;;;5096822;28;20204;-88
2022/09/03 00:41:05;;;;;;;3.17;2.20;;;13.80;84.00;;;;;;5096866;28;20193;-88
2022/09/03 00:43:50;;;;;;;5.88;2.70;;;13.80;84.60;;;;;;5094629;28;20746;-88
2022/09/03 00:46:25;;;;;;;3.55;2.60;;;13.80;84.70;;;;;;5096880;28;20203;-88
2022/09/03 00:49:19;;;;;;;4.93;2.60;;;13.80;86.20;;;;;;5089656;28;20227;-88
2022/09/03 00:51:53;;;;;;;5.55;2.42;;;13.80;86.70;;;;;;5100679;28;20193;-87
2022/09/03 00:54:31;;;;;;;2.70;2.38;;;13.90;86.80;;;;;;5102856;28;20538;-87
2022/09/03 00:57:06;;;;;;;3.33;2.35;;;13.80;87.80;;;;;;5099119;28;20203;-87
2022/09/03 00:59:44;;;;;;;2.75;2.50;;;13.80;88.00;;;;;;5099386;28;20643;-86
2022/09/03 01:02:19;;;;;;;3.33;2.70;;;13.70;89.90;;;;;;5098444;28;20196;-87
2022/09/03 01:04:57;;;;;;;4.00;2.60;;;13.60;89.10;;;;;;5097572;28;20192;-86
2022/09/03 01:07:34;;;;;;;4.60;2.22;;;13.60;88.70;;;;;;5101871;28;20204;-86
2022/09/03 01:10:15;;;;;;;3.08;2.30;;;13.60;89.70;;;;;;5101781;28;20212;-86
2022/09/03 01:12:55;;;;;;;3.78;2.50;;;13.50;90.00;;;;;;5100342;28;20648;-86
2022/09/03 01:15:35;;;;;;;3.83;2.60;;;13.50;90.20;;;;;;5091801;28;20203;-87
2022/09/03 01:18:17;;;;;;;4.65;2.55;;;13.40;90.50;;;;;;5106375;28;20192;-86
2022/09/03 01:21:05;;;;;;;2.72;2.40;;;13.30;90.80;;;;;;5099066;28;20196;-87
2022/09/03 01:24:13;;;;;;;3.08;2.42;;;13.30;91.00;;;;;;5088122;28;20200;-86
2022/09/03 01:27:04;;;;;;;7.47;2.45;;;13.40;91.10;;;;;;5095680;28;20563;-87
2022/09/03 01:29:39;;;;;;;2.40;2.20;;;13.40;91.10;;;;;;5094544;28;20200;-87
2022/09/03 01:32:14;;;;;;;3.10;2.55;;;13.30;91.10;;;;;;5097511;28;20188;-87
2022/09/03 01:34:52;;;;;;;3.83;2.42;;;13.20;91.00;;;;;;5100770;28;20655;-87
2022/09/03 01:37:34;;;;;;;3.97;2.40;;;13.10;91.00;;;;;;5102228;28;20227;-87
2022/09/03 01:40:18;;;;;;;2.63;2.17;;;13.20;91.00;;;;;;5098626;28;20201;-86
2022/09/03 01:43:03;;;;;;;4.40;2.40;;;13.20;91.00;;;;;;5105960;28;20193;-86
2022/09/03 01:45:53;;;;;;;3.47;2.58;;;13.10;91.00;;;;;;5100639;28;20238;-87
2022/09/03 01:48:40;;;;;;;4.10;2.47;;;13.00;91.60;;;;;;5092584;28;20264;-86
2022/09/03 01:51:17;;;;;;;3.90;2.40;;;13.00;91.90;;;;;;5100570;28;20228;-86
2022/09/03 01:54:11;;;;;;;2.83;2.47;;;13.00;92.20;;;;;;5102609;28;20226;-87
2022/09/03 01:57:17;;;;;;;2.53;2.33;;;13.00;92.00;;;;;;5101324;28;20252;-86
2022/09/03 01:59:54;;;;;;;2.65;2.38;;;12.90;92.90;;;;;;5102921;28;20538;-87
2022/09/03 02:02:24;;;;;;;7.18;2.50;;;12.80;92.90;;;;;;5100532;28;20196;-86
2022/09/03 02:05:34;;;;;;;3.30;2.67;;;12.80;92.50;;;;;;5100775;28;20196;-88
2022/09/03 02:08:04;;;;;;;4.80;2.72;;;13.00;92.60;;;;;;5085126;28;20207;-86
2022/09/03 02:11:01;;;;;;;3.70;2.70;;;13.00;92.20;;;;;;5103306;28;20701;-87
2022/09/03 02:13:54;;;;;;;3.35;2.53;;;13.10;91.50;;;;;;5098235;28;20290;-87
2022/09/03 02:16:33;;;;;;;5.05;2.65;;;13.10;91.50;;;;;;5103637;28;20228;-86
2022/09/03 02:19:36;;;;;;;2.58;2.30;;;13.10;91.70;;;;;;5101503;28;20207;-87
2022/09/03 02:22:22;;;;;;;4.43;2.80;;;13.00;91.70;;;;;;5095121;28;20203;-87
2022/09/03 02:25:28;;;;;;;7.57;2.70;;;13.00;91.80;;;;;;5096487;28;20278;-86
2022/09/03 02:28:06;;;;;;;3.17;2.65;;;12.90;92.20;;;;;;5100330;28;20284;-86
2022/09/03 02:30:35;;;;;;;4.90;2.90;;;12.80;92.80;;;;;;5097977;28;20687;-86
2022/09/03 02:33:05;;;;;;;3.08;2.58;;;12.80;92.90;;;;;;5100786;28;20193;-87
2022/09/03 02:35:34;;;;;;;4.07;2.35;;;12.80;92.60;;;;;;5100445;28;20196;-86
2022/09/03 02:41:29;;;;;;;2.95;2.65;;;13.00;92.80;;;;;;5099464;28;20265;-87
2022/09/03 02:44:52;;;;;;;3.40;2.67;;;12.90;92.90;;;;;;5100061;28;20277;-86
2022/09/03 02:47:42;;;;;;;2.80;2.53;;;12.70;93.10;;;;;;5099380;28;20275;-87
2022/09/03 02:50:17;;;;;;;3.33;2.95;;;12.60;93.30;;;;;;5101923;28;20205;-86
2022/09/03 02:53:06;;;;;;;3.08;2.78;;;12.50;94.00;;;;;;5101733;28;20559;-86
2022/09/03 02:55:33;;;;;;;7.78;2.88;;;12.50;94.10;;;;;;5100760;28;20219;-86
2022/09/03 02:58:07;;;;;;;3.45;2.60;;;12.50;93.60;;;;;;5104547;28;20206;-86
2022/09/03 03:00:59;;;;;;;3.33;2.50;;;12.60;93.70;;;;;;5106626;28;20309;-86
2022/09/03 03:03:35;;;;;;;5.57;2.90;;;12.70;93.70;;;;;;5100802;28;20208;-86
2022/09/03 03:06:05;;;;;;;3.40;2.78;;;12.60;93.50;;;;;;5105189;28;20214;-87
2022/09/03 03:08:34;;;;;;;3.08;2.78;;;12.50;93.60;;;;;;5099127;28;20256;-87
2022/09/03 03:11:11;;;;;;;3.95;2.78;;;12.50;93.90;;;;;;5098667;28;20281;-87
2022/09/03 03:14:04;;;;;;;3.92;3.00;;;12.30;94.30;;;;;;5101745;28;20198;-87
2022/09/03 03:20:29;;;;;;;3.67;2.42;;;12.40;94.60;;;;;;5101036;28;20190;-86
2022/09/03 03:22:56;;;;;;;4.00;2.90;;;12.50;94.60;;;;;;5099422;28;20196;-87
2022/09/03 03:25:31;;;;;;;6.18;2.67;;;12.60;94.60;;;;;;5101497;28;20271;-86
2022/09/03 03:27:58;;;;;;;3.58;2.80;;;12.60;94.30;;;;;;5099852;28;20255;-87
2022/09/03 03:30:29;;;;;;;3.72;2.90;;;12.50;94.30;;;;;;5099953;28;20284;-86
2022/09/03 03:32:57;;;;;;;3.50;2.65;;;12.40;94.40;;;;;;5086850;28;20197;-86
2022/09/03 03:35:46;;;;;;;3.78;2.90;;;12.40;94.50;;;;;;5099027;28;20277;-86
2022/09/03 03:38:13;;;;;;;3.08;2.78;;;12.30;94.50;;;;;;5100855;28;20263;-86
2022/09/03 03:41:06;;;;;;;3.47;2.70;;;12.40;94.50;;;;;;5102634;28;20431;-86
2022/09/03 03:43:35;;;;;;;4.07;3.10;;;12.40;94.70;;;;;;5101122;28;20230;-88
2022/09/03 03:46:23;;;;;;;5.05;2.85;;;12.50;94.70;;;;;;5102509;28;20255;-87
2022/09/03 03:48:59;;;;;;;3.35;2.90;;;12.40;94.70;;;;;;5097764;28;20195;-87
2022/09/03 03:51:35;;;;;;;3.30;2.80;;;12.30;94.80;;;;;;5093198;28;20208;-86
2022/09/03 03:54:11;;;;;;;2.90;2.70;;;12.30;95.00;;;;;;5099535;28;20204;-87
2022/09/03 03:56:48;;;;;;;3.00;2.72;;;12.30;95.00;;;;;;5101527;28;20273;-87
2022/09/03 03:59:17;;;;;;;5.18;2.78;;;12.30;95.00;;;;;;5098867;28;20196;-86
2022/09/03 04:02:10;;;;;;;3.75;2.97;;;12.30;94.90;;;;;;5099683;28;20204;-86
2022/09/03 04:04:41;;;;;;;3.00;2.70;;;12.20;95.00;;;;;;5095023;28;20205;-86
2022/09/03 04:07:40;;;;;;;3.80;2.70;;;12.10;95.20;;;;;;5098389;28;20212;-87
2022/09/03 04:10:11;;;;;;;4.28;2.50;;;12.10;95.40;;;;;;5094310;28;20207;-87
2022/09/03 04:12:48;;;;;;;4.20;2.38;;;12.20;95.70;;;;;;5099067;28;20753;-86
2022/09/03 04:15:23;;;;;;;6.05;2.80;;;12.20;95.50;;;;;;5089995;28;20197;-86
2022/09/03 04:17:54;;;;;;;2.95;2.65;;;12.20;95.50;;;;;;5094774;28;20718;-87
2022/09/03 04:20:21;;;;;;;2.78;2.50;;;12.20;95.60;;;;;;5100637;28;20203;-86
2022/09/03 04:23:28;;;;;;;4.63;2.60;;;12.10;95.90;;;;;;5099929;28;20189;-88
2022/09/03 04:25:55;;;;;;;3.58;2.95;;;12.30;95.60;;;;;;5091799;28;20220;-87
2022/09/03 04:28:23;;;;;;;3.90;2.70;;;12.30;95.50;;;;;;5097294;28;20200;-87
2022/09/03 04:30:50;;;;;;;3.88;2.70;;;12.20;95.70;;;;;;5091164;28;20209;-87
2022/09/03 04:33:36;;;;;;;2.83;2.63;;;12.20;95.80;;;;;;5097927;28;20205;-87
2022/09/03 04:36:23;;;;;;;4.78;3.05;;;12.30;95.90;;;;;;5101886;28;20230;-87
2022/09/03 04:39:16;;;;;;;3.00;2.78;;;12.30;95.80;;;;;;5094736;28;20197;-87
2022/09/03 04:41:47;;;;;;;4.28;3.03;;;12.40;95.70;;;;;;5102438;28;20216;-86
2022/09/03 04:45:04;;;;;;;5.93;2.72;;;12.50;96.00;;;;;;5105044;28;20212;-86
2022/09/03 04:47:37;;;;;;;3.83;2.75;;;12.40;95.90;;;;;;5089033;28;20200;-87
2022/09/03 04:50:23;;;;;;;3.83;2.60;;;12.50;95.80;;;;;;5101959;28;20189;-86
2022/09/03 04:52:49;;;;;;;3.50;2.92;;;12.60;95.00;;;;;;5105258;28;20204;-86
2022/09/03 04:55:41;;;;;;;4.53;3.08;;;12.70;94.70;;;;;;5103328;28;20204;-86
2022/09/03 04:58:11;;;;;;;3.35;2.80;;;12.70;95.00;;;;;;5096441;28;20677;-87
2022/09/03 05:01:07;;;;;;;3.78;2.67;;;12.70;95.00;;;;;;5104329;28;20203;-87
2022/09/03 05:03:37;;;;;;;3.22;2.65;;;12.80;94.60;;;;;;5102533;28;20200;-87
2022/09/03 05:06:05;;;;;;;6.18;2.97;;;12.90;94.40;;;;;;5101414;28;20348;-86
2022/09/03 05:08:36;;;;;;;7.90;2.80;;;13.00;94.40;;;;;;5095892;28;20247;-87
2022/09/03 05:11:17;;;;;;;3.03;2.60;;;12.90;94.20;;;;;;5098345;28;20216;-86
2022/09/03 05:13:48;;;;;;;2.95;2.65;;;13.00;93.70;;;;;;5097625;28;20197;-86
2022/09/03 05:16:15;;;;;;;3.58;2.58;;;13.10;93.90;;;;;;5098688;28;20201;-86
2022/09/03 05:18:44;;;;;;;3.40;2.85;;;13.20;93.40;;;;;;5100356;28;20206;-87
2022/09/03 05:21:13;;;;;;;5.05;3.05;;;13.30;93.50;;;;;;5096370;28;20207;-86
2022/09/03 05:23:43;;;;;;;3.20;2.90;;;13.30;92.60;;;;;;5094177;28;20644;-86
2022/09/03 05:26:16;;;;;;;2.88;2.63;;;13.50;92.70;;;;;;5084830;28;20248;-87
2022/09/03 05:28:44;;;;;;;3.42;2.47;;;13.70;92.20;;;;;;5089567;28;20204;-86
2022/09/03 05:31:13;;;;;;;3.15;2.70;;;13.90;91.70;;;;;;5089575;28;20248;-86
2022/09/03 05:33:46;;;;;;;3.70;2.92;;;14.00;91.70;;;;;;5092743;28;20284;-89
2022/09/03 05:36:15;;;;;;;3.83;2.80;;;14.20;91.30;;;;;;5096056;28;20197;-88
2022/09/03 05:38:43;;;;;;;2.95;2.67;;;14.40;89.60;;;;;;5090150;28;20201;-87
2022/09/03 05:41:11;;;;;;;5.28;2.80;;;14.40;90.10;;;;;;5090244;28;20196;-87
2022/09/03 05:43:40;;;;;;;7.38;3.28;;;14.40;90.70;;;;;;5091354;28;20632;-88
2022/09/03 05:46:12;;;;;;;6.40;3.40;;;14.50;89.30;;;;;;5091042;28;20683;-87
2022/09/03 05:48:41;;;;;;;5.28;2.55;;;14.50;89.20;;;;;;5091431;28;20549;-88
2022/09/03 05:51:12;;;;;;;5.38;3.13;;;14.50;89.50;;;;;;5074519;28;20273;-87
2022/09/03 05:53:40;;;;;;;5.03;3.10;;;14.60;89.00;;;;;;5090844;28;20226;-87
2022/09/03 05:56:12;;;;;;;3.65;2.92;;;14.60;88.90;;;;;;5093862;28;20207;-87
2022/09/03 05:58:47;;;;;;;3.00;2.72;;;14.50;86.40;;;;;;5084341;28;20215;-88
2022/09/03 06:01:18;;;;;;;3.40;2.80;;;14.60;88.10;;;;;;5091485;28;20211;-87
2022/09/03 06:03:47;;;;;;;3.28;2.75;;;14.80;86.50;;;;;;5094649;28;20231;-87
2022/09/03 06:06:24;;;;;;;5.93;3.25;;;15.20;82.50;;;;;;5098001;28;20212;-87
2022/09/03 06:08:51;;;;;;;3.10;2.78;;;15.50;81.00;;;;;;5093158;28;20228;-87
2022/09/03 06:11:18;;;;;;;4.85;2.70;;;15.60;78.90;;;;;;5095110;28;20220;-86
2022/09/03 06:13:46;;;;;;;4.82;2.80;;;15.70;77.80;;;;;;5092925;28;20228;-87
2022/09/03 06:16:13;;;;;;;4.03;2.88;;;15.80;77.80;;;;;;5087836;28;20287;-87
2022/09/03 06:18:42;;;;;;;5.30;2.72;;;15.80;74.80;;;;;;5089872;28;20222;-87
2022/09/03 06:21:15;;;;;;;3.63;2.72;;;15.80;75.50;;;;;;5089639;28;20211;-87
2022/09/03 06:23:43;;;;;;;3.60;2.95;;;15.80;75.60;;;;;;5093069;28;20216;-87
2022/09/03 06:26:14;;;;;;;4.90;2.90;;;16.00;77.30;;;;;;5093647;28;20197;-87
2022/09/03 06:28:43;;;;;;;4.32;2.58;;;16.00;76.60;;;;;;5092587;28;20208;-88
2022/09/03 06:31:18;;;;;;;4.55;2.88;;;16.10;76.00;;;;;;5086619;28;20620;-88
2022/09/03 06:33:46;;;;;;;5.32;2.85;;;16.20;75.80;;;;;;5091136;28;20261;-88
2022/09/03 06:36:14;;;;;;;3.20;2.90;;;16.30;75.50;;;;;;5092385;28;20207;-88
2022/09/03 06:38:44;;;;;;;4.63;2.80;;;16.40;75.00;;;;;;5096276;28;20197;-87
2022/09/03 06:41:19;;;;;;;5.40;2.75;;;16.40;72.50;;;;;;5090334;28;20643;-88
2022/09/03 06:43:48;;;;;;;4.47;2.70;;;16.40;75.00;;;;;;5090170;28;20215;-88
2022/09/03 06:46:16;;;;;;;3.05;2.63;;;16.50;75.90;;;;;;5092140;28;20196;-87
2022/09/03 06:48:43;;;;;;;5.80;2.33;;;16.50;78.30;;;;;;5093248;28;20193;-88
2022/09/03 06:51:13;;;;;;;3.28;2.97;;;16.40;77.20;;;;;;5091748;28;20211;-88
2022/09/03 06:53:42;;;;;;;4.65;2.90;;;16.50;76.30;;;;;;5090177;28;20204;-88
2022/09/03 06:56:13;;;;;;;4.75;2.70;;;16.50;75.00;;;;;;5091470;28;20205;-87
2022/09/03 06:58:42;;;;;;;4.20;2.90;;;16.50;76.20;;;;;;5090937;28;20199;-88
2022/09/03 07:01:10;;;;;;;2.90;2.60;;;16.50;78.20;;;;;;5085106;28;20280;-87
2022/09/03 07:03:39;;;;;;;3.50;2.90;;;16.40;77.20;;;;;;5089754;28;20573;-87
2022/09/03 07:06:07;;;;;;;4.53;2.78;;;16.40;77.40;;;;;;5087806;28;20769;-87
2022/09/03 07:08:35;;;;;;;3.08;2.75;;;16.30;79.10;;;;;;5090988;28;20214;-87
2022/09/03 07:11:08;;;;;;;3.75;2.83;;;16.30;79.10;;;;;;5090416;28;20196;-87
2022/09/03 07:13:36;;;;;;;2.88;2.58;;;16.30;79.90;;;;;;5091746;28;20224;-88
2022/09/03 07:16:07;;;;;;;3.17;2.70;;;16.30;78.70;;;;;;5091272;28;20196;-88
2022/09/03 07:18:34;;;;;;;5.35;2.72;;;16.30;78.20;;;;;;5091014;28;20209;-88
2022/09/03 07:21:03;;;;;;;3.88;3.00;;;16.20;81.30;;;;;;5089384;28;20720;-87
2022/09/03 07:23:31;;;;;;;3.92;2.90;;;16.10;82.40;;;;;;5088945;28;20670;-88
2022/09/03 07:26:00;;;;;;;3.08;2.78;;;16.10;83.60;;;;;;5082453;28;20203;-87
2022/09/03 07:28:29;;;;;;;4.78;2.72;;;16.10;85.40;;;;;;5091247;28;20261;-87
2022/09/03 07:31:05;;;;;;;3.92;2.85;;;16.00;88.60;;;;;;5088245;28;20200;-87
2022/09/03 07:33:32;;;;;;;5.03;2.80;;;15.90;90.60;;;;;;5089742;28;20208;-87
2022/09/03 07:36:05;;;;;;;5.88;2.83;;;15.90;89.60;;;;;;5090088;28;20203;-88
2022/09/03 07:38:31;;;;;;;3.65;2.55;;;15.80;90.40;;;;;;5090127;28;20280;-88
2022/09/03 07:40:59;;;;;;;6.18;2.70;;;16.00;90.10;;;;;;5089921;28;20196;-87
2022/09/03 07:43:27;;;;;;;3.00;2.67;;;15.90;90.40;;;;;;5089850;28;20207;-88
2022/09/03 07:45:55;;;;;;;3.67;2.53;;;15.80;90.60;;;;;;5090691;28;20200;-88
2022/09/03 07:48:24;;;;;;;3.08;2.40;;;15.80;90.80;;;;;;5085304;28;20205;-87
2022/09/03 07:50:53;;;;;;;2.92;2.67;;;15.80;90.40;;;;;;5089864;28;20288;-87
2022/09/03 07:53:20;;;;;;;6.00;2.70;;;15.90;91.50;;;;;;5088721;28;20311;-87
2022/09/03 07:55:48;;;;;;;3.10;2.80;;;15.90;91.70;;;;;;5074480;28;20189;-87
2022/09/03 07:58:15;;;;;;;3.40;3.00;;;15.80;91.60;;;;;;5090358;28;20546;-87
2022/09/03 08:00:43;;;;;;;3.35;2.88;;;15.70;92.60;;;;;;5085637;28;20215;-88
2022/09/03 08:03:15;;;;;;;3.35;3.03;;;15.70;93.10;;;;;;5083103;28;20204;-89
2022/09/03 08:05:44;;;;;;;3.15;2.85;;;15.80;93.60;;;;;;5089563;28;20677;-85
2022/09/03 08:08:13;;;;;;;4.70;3.55;;;15.80;94.50;;;;;;5089906;28;20234;-88
2022/09/03 08:10:41;;;;;;;3.60;3.30;;;15.80;94.60;;;;;;5092989;28;20546;-88
2022/09/03 08:13:09;;;;;;;4.38;2.95;;;15.90;94.60;;;;;;5093243;28;20232;-87
2022/09/03 08:15:39;;;;;;;3.50;3.20;;;15.90;94.60;;;;;;5094749;28;20205;-87
2022/09/03 08:18:06;;;;;;;4.90;3.08;;;15.90;95.30;;;;;;5097404;28;20207;-86
2022/09/03 08:20:33;;;;;;;3.80;3.35;;;16.00;95.50;;;;;;5092173;28;20250;-87
2022/09/03 08:23:07;;;;;;;3.45;3.15;;;16.10;95.50;;;;;;5077208;28;20576;-88
2022/09/03 08:25:35;;;;;;;4.70;3.22;;;16.30;95.60;;;;;;5089292;28;20193;-87
2022/09/03 08:28:02;;;;;;;3.75;3.40;;;16.50;95.10;;;;;;5093117;28;20651;-87
2022/09/03 08:30:29;;;;;;;6.38;4.00;;;16.60;94.90;;;;;;5092901;28;20212;-86
2022/09/03 08:32:56;;;;;;;5.57;3.80;;;16.80;94.90;;;;;;5090157;28;20651;-86
2022/09/03 08:35:23;;;;;;;4.55;3.55;;;16.90;94.70;;;;;;5090527;28;20232;-86
2022/09/03 08:37:54;;;;;;;3.80;3.50;;;17.30;94.30;;;;;;5092627;28;20193;-86
2022/09/03 08:40:23;;;;;;;3.55;3.25;;;17.70;93.00;;;;;;5093118;28;20201;-86
2022/09/03 08:43:04;;;;;;;4.05;3.15;;;18.00;91.50;;;;;;5093161;28;20212;-87
2022/09/03 08:45:37;;;;;;;4.55;3.30;;;18.40;90.10;;;;;;5094844;28;20540;-84
2022/09/03 08:48:07;;;;;;;5.57;3.40;;;18.60;90.20;;;;;;5097985;28;20572;-83
2022/09/03 08:50:38;;;;;;;3.45;3.15;;;18.80;88.30;;;;;;5091973;28;20275;-84
2022/09/03 08:53:11;;;;;;;4.57;3.30;;;19.40;84.30;;;;;;5096611;28;20238;-84
2022/09/03 08:55:50;;;;;;;4.00;3.60;;;19.80;80.70;;;;;;5090209;28;20568;-86
2022/09/03 08:58:19;;;;;;;3.50;3.20;;;20.00;77.90;;;;;;5094578;28;20193;-84
2022/09/03 09:00:50;;;;;;;5.25;3.40;;;20.30;76.40;;;;;;5097346;28;20683;-84
2022/09/03 09:03:42;;;;;;;3.60;3.28;;;20.70;70.00;;;;;;5094143;28;20197;-84
2022/09/03 09:06:22;;;;;;;3.50;3.20;;;21.10;70.40;;;;;;5094481;28;20197;-82
2022/09/03 09:09:04;;;;;;;3.00;2.80;;;21.60;67.80;;;;;;5089970;28;20270;-83
2022/09/03 09:11:48;;;;;;;8.30;7.50;;;22.20;60.40;;;;;;5095682;28;20200;-83
2022/09/03 09:14:22;;;;;;;15.85;14.07;;;23.10;51.20;;;;;;5097517;28;20256;-83
2022/09/03 09:16:59;;;;;;;5.80;5.22;;;24.10;42.40;;;;;;5096881;28;20206;-83
2022/09/03 09:19:37;;;;;;;4.30;3.95;;;24.60;36.80;;;;;;5098155;28;20196;-83
2022/09/03 09:22:10;;;;;;;3.45;2.65;;;24.40;35.80;;;;;;5090995;28;20659;-83
2022/09/03 09:24:41;;;;;;;3.72;2.40;;;23.80;36.70;;;;;;5098335;28;20203;-83
2022/09/03 09:27:12;;;;;;;2.92;2.53;;;23.00;44.20;;;;;;5085561;28;20249;-83
2022/09/03 09:29:41;;;;;;;3.75;2.40;;;22.70;43.40;;;;;;5096460;28;20257;-83
2022/09/03 09:32:12;;;;;;;3.30;2.15;;;22.50;50.10;;;;;;5097950;28;20222;-83
2022/09/03 09:34:40;;;;;;;14.38;11.68;;;23.60;50.10;;;;;;5099059;28;20196;-83
2022/09/03 09:37:12;;;;;;;3.95;2.28;;;24.90;36.20;;;;;;5095880;28;20196;-83
2022/09/03 09:39:39;;;;;;;3.38;3.13;;;25.10;29.30;;;;;;5097127;28;20249;-83
2022/09/03 09:42:11;;;;;;;2.53;2.33;;;25.60;29.50;;;;;;5096253;28;20200;-83
2022/09/03 09:44:40;;;;;;;4.03;3.63;;;25.30;29.60;;;;;;5098022;28;20223;-84
2022/09/03 09:47:11;;;;;;;2.50;2.30;;;25.40;29.40;;;;;;5096540;28;20204;-84
2022/09/03 09:49:50;;;;;;;2.58;2.38;;;25.60;30.10;;;;;;5086281;28;20211;-82
2022/09/03 09:52:18;;;;;;;12.50;11.38;;;25.60;26.70;;;;;;5097946;28;20216;-84
2022/09/03 09:54:45;;;;;;;2.88;2.50;;;25.20;28.80;;;;;;5098013;28;20200;-85
2022/09/03 09:57:18;;;;;;;2.58;2.08;;;25.70;26.60;;;;;;5098104;28;20889;-84
2022/09/03 09:59:45;;;;;;;3.03;2.83;;;26.20;27.40;;;;;;5094203;28;20211;-85
2022/09/03 10:02:14;;;;;;;4.65;2.75;;;26.80;22.20;;;;;;5090083;28;20663;-84
2022/09/03 10:04:44;;;;;;;5.43;2.90;;;26.10;23.50;;;;;;5090581;28;20278;-83
2022/09/03 10:07:24;;;;;;;1.90;1.80;;;25.20;28.30;;;;;;5092793;28;20257;-84
2022/09/03 10:10:03;;;;;;;4.97;3.67;;;24.90;25.80;;;;;;5097496;28;20654;-83
2022/09/03 10:12:36;;;;;;;2.10;2.00;;;24.90;28.50;;;;;;5092083;28;20222;-83
2022/09/03 10:15:12;;;;;;;2.63;2.40;;;24.70;30.00;;;;;;5085310;28;20199;-83
2022/09/03 10:17:48;;;;;;;3.00;2.80;;;24.50;31.20;;;;;;5096200;28;20200;-83
2022/09/03 10:20:29;;;;;;;4.57;2.55;;;24.10;31.80;;;;;;5096390;28;20573;-83
2022/09/03 10:23:00;;;;;;;21.08;18.98;;;24.10;29.30;;;;;;5095480;28;20200;-83
2022/09/03 10:25:38;;;;;;;4.18;2.80;;;24.00;29.80;;;;;;5090456;28;20188;-83
2022/09/03 10:28:08;;;;;;;5.38;4.88;;;24.00;30.60;;;;;;5099022;28;20198;-83
2022/09/03 10:30:56;;;;;;;2.20;2.00;;;24.10;30.80;;;;;;5098433;28;20207;-84
2022/09/03 10:33:26;;;;;;;5.35;4.90;;;24.00;33.80;;;;;;5090576;28;20223;-84
2022/09/03 10:36:03;;;;;;;3.13;2.83;;;24.00;29.60;;;;;;5094536;28;20204;-84
2022/09/03 10:38:33;;;;;;;2.00;1.90;;;23.70;33.80;;;;;;5097328;28;20199;-83
2022/09/03 10:41:16;;;;;;;3.03;2.10;;;23.40;31.60;;;;;;5096684;28;20207;-82
2022/09/03 10:44:15;;;;;;;2.42;2.22;;;23.30;34.80;;;;;;5094523;28;20276;-82
2022/09/03 10:46:58;;;;;;;2.05;1.95;;;23.30;37.50;;;;;;5089144;28;20203;-82
2022/09/03 10:49:45;;;;;;;3.35;2.60;;;23.50;29.90;;;;;;5089908;28;20200;-83
2022/09/03 10:52:25;;;;;;;2.20;2.00;;;23.70;33.70;;;;;;5097347;28;20279;-83
2022/09/03 10:55:08;;;;;;;2.25;1.90;;;23.90;39.00;;;;;;5089455;28;20196;-83
2022/09/03 10:57:45;;;;;;;2.15;1.95;;;24.90;27.40;;;;;;5093787;28;20200;-83
2022/09/03 11:00:17;;;;;;;1.83;1.73;;;25.90;24.60;;;;;;5095432;28;20196;-84
2022/09/03 11:02:59;;;;;;;2.20;2.00;;;26.30;23.50;;;;;;5093624;28;20196;-84
2022/09/03 11:05:35;;;;;;;2.20;2.00;;;26.50;23.20;;;;;;5087254;28;20266;-85
2022/09/03 11:08:07;;;;;;;2.00;1.90;;;25.90;25.00;;;;;;5088513;28;20203;-84
2022/09/03 11:10:40;;;;;;;2.42;2.05;;;25.80;24.90;;;;;;5091731;28;20287;-84
2022/09/03 11:13:12;;;;;;;1.85;1.70;;;25.30;24.80;;;;;;5098390;28;20207;-84
2022/09/03 11:15:45;;;;;;;2.08;1.98;;;25.20;28.10;;;;;;5093044;28;20221;-84
2022/09/03 11:18:18;;;;;;;2.45;2.17;;;25.20;28.50;;;;;;5093880;28;20210;-84
2022/09/03 11:20:49;;;;;;;3.13;1.90;;;24.90;29.80;;;;;;5085503;28;20204;-83
2022/09/03 11:23:18;;;;;;;2.33;2.10;;;24.70;30.20;;;;;;5085645;28;20208;-83
2022/09/03 11:25:50;;;;;;;2.97;2.15;;;24.50;30.20;;;;;;5089828;28;20573;-83
2022/09/03 11:28:27;;;;;;;2.10;2.00;;;24.40;31.20;;;;;;5089016;28;20204;-83
2022/09/03 11:31:18;;;;;;;2.08;1.90;;;24.70;30.90;;;;;;5088020;28;20192;-83
2022/09/03 11:33:52;;;;;;;3.45;2.05;;;25.10;29.30;;;;;;5089939;28;20220;-83
2022/09/03 11:36:28;;;;;;;1.85;1.75;;;25.60;24.80;;;;;;5089577;28;20208;-83
2022/09/03 11:38:55;;;;;;;2.00;1.80;;;25.40;23.80;;;;;;5088059;28;20196;-82
2022/09/03 11:41:26;;;;;;;2.00;1.80;;;25.10;24.20;;;;;;5094653;28;20188;-80
2022/09/03 11:43:54;;;;;;;2.15;1.80;;;24.90;23.30;;;;;;5093411;28;20212;-80
2022/09/03 11:46:31;;;;;;;2.20;2.00;;;24.90;24.40;;;;;;5089817;28;20347;-80
2022/09/03 11:49:13;;;;;;;1.95;1.80;;;24.50;26.70;;;;;;5095244;28;20242;-80
2022/09/03 11:51:42;;;;;;;1.73;1.63;;;24.70;25.30;;;;;;5091008;28;20216;-80
2022/09/03 11:54:25;;;;;;;2.28;2.10;;;24.60;24.20;;;;;;5091712;28;20227;-80
2022/09/03 11:57:09;;;;;;;5.28;4.78;;;24.50;24.40;;;;;;5092753;28;20292;-80
2022/09/03 11:59:36;;;;;;;1.90;1.80;;;24.70;29.30;;;;;;5088753;28;20205;-80
2022/09/03 12:02:24;;;;;;;2.45;2.25;;;24.70;26.80;;;;;;5091034;28;20196;-80
2022/09/03 12:05:07;;;;;;;2.40;2.20;;;24.80;24.30;;;;;;5085759;28;20199;-80
2022/09/03 12:07:51;;;;;;;1.92;1.80;;;24.80;23.80;;;;;;5095984;28;20580;-80
2022/09/03 12:10:27;;;;;;;3.22;2.92;;;24.80;24.30;;;;;;5094739;28;20196;-80
2022/09/03 12:13:15;;;;;;;2.28;1.83;;;24.80;26.10;;;;;;5095666;28;20219;-82
2022/09/03 12:16:00;;;;;;;1.70;1.60;;;24.80;23.20;;;;;;5095319;28;20200;-82
2022/09/03 12:18:40;;;;;;;1.65;1.55;;;24.80;23.80;;;;;;5083848;28;20204;-81
2022/09/03 12:21:09;;;;;;;2.22;1.70;;;24.80;22.80;;;;;;5098203;28;20642;-82
2022/09/03 12:23:42;;;;;;;1.75;1.60;;;24.60;22.20;;;;;;5098348;28;20239;-82
2022/09/03 12:26:14;;;;;;;1.80;1.70;;;24.50;23.50;;;;;;5094568;28;20238;-82
2022/09/03 12:28:42;;;;;;;1.70;1.58;;;24.60;25.20;;;;;;5093635;28;20262;-82
2022/09/03 12:31:23;;;;;;;2.00;1.85;;;24.60;25.30;;;;;;5097258;28;20203;-82
2022/09/03 12:33:58;;;;;;;2.00;1.90;;;24.70;25.20;;;;;;5096686;28;20217;-82
2022/09/03 12:36:26;;;;;;;3.42;3.13;;;24.70;24.20;;;;;;5096402;28;20196;-82
2022/09/03 12:38:53;;;;;;;1.95;1.85;;;24.70;24.20;;;;;;5095032;28;20201;-82
2022/09/03 12:41:26;;;;;;;1.98;1.70;;;24.50;24.10;;;;;;5097566;28;20229;-82
2022/09/03 12:43:55;;;;;;;1.85;1.75;;;24.20;26.60;;;;;;5093648;28;20217;-82
2022/09/03 12:46:26;;;;;;;3.33;1.90;;;24.40;25.60;;;;;;5085563;28;20617;-85
2022/09/03 12:49:02;;;;;;;2.20;2.00;;;24.40;24.00;;;;;;5089281;28;20655;-86
2022/09/03 12:51:33;;;;;;;1.70;1.60;;;24.40;25.50;;;;;;5091578;28;20203;-85
2022/09/03 12:54:01;;;;;;;3.28;1.90;;;24.40;24.00;;;;;;5091153;28;20219;-85
2022/09/03 12:56:29;;;;;;;1.85;1.70;;;24.40;24.70;;;;;;5086329;28;20200;-85
2022/09/03 12:59:01;;;;;;;2.03;1.88;;;24.30;24.40;;;;;;5093385;28;20207;-85
2022/09/03 13:01:30;;;;;;;3.38;1.70;;;24.40;25.80;;;;;;5094757;28;20568;-85
2022/09/03 13:04:10;;;;;;;1.90;1.80;;;24.50;25.50;;;;;;5098045;28;20204;-81
2022/09/03 13:06:49;;;;;;;2.50;1.98;;;24.70;24.60;;;;;;5096371;28;20204;-84
2022/09/03 13:09:20;;;;;;;3.08;2.00;;;24.70;24.80;;;;;;5093333;28;20196;-85
2022/09/03 13:11:47;;;;;;;1.92;1.83;;;24.90;23.50;;;;;;5094050;28;20200;-85
2022/09/03 13:14:17;;;;;;;1.63;1.52;;;25.10;24.50;;;;;;5094302;28;20223;-85
2022/09/03 13:17:00;;;;;;;3.20;1.77;;;24.90;23.50;;;;;;5090057;28;20204;-85
2022/09/03 13:19:39;;;;;;;1.73;1.63;;;24.50;24.10;;;;;;5092866;28;20211;-85
2022/09/03 13:22:14;;;;;;;3.13;1.63;;;24.10;23.70;;;;;;5095431;28;20198;-84
2022/09/03 13:24:55;;;;;;;2.00;1.90;;;24.00;25.80;;;;;;5093578;28;20210;-85
2022/09/03 13:27:28;;;;;;;1.80;1.70;;;24.00;25.40;;;;;;5091254;28;20212;-85
2022/09/03 13:30:04;;;;;;;2.75;2.55;;;24.30;25.70;;;;;;5089851;28;20546;-85
2022/09/03 13:32:39;;;;;;;2.10;1.90;;;24.50;24.00;;;;;;5078226;28;20204;-86